Aviation Digital Data Service (ADDS)

Output produced by METARs form (1018 UTC 26 July 2016)
found at http://aviationweather.gov/adds/metars/
 
KCKB 260558Z 2606/2706 00000KT 6SM BR BKN040 
     FM260900 00000KT 4SM BR BKN120 
     FM261400 00000KT P6SM BKN120 
     FM261900 31004KT P6SM VCTS BKN090CB 
     FM262300 VRB03KT P6SM BKN090